sensor_id;sensor_type;location;lat;lon;timestamp;pressure;altitude;pressure_sealevel;temperature
78917;BMP280;68315;48.608;11.436;2023-04-03T00:00:43;97833.63;;;3.60
78917;BMP280;68315;48.608;11.436;2023-04-03T00:03:08;97842.22;;;3.59
78917;BMP280;68315;48.608;11.436;2023-04-03T00:05:34;97839.97;;;3.57
78917;BMP280;68315;48.608;11.436;2023-04-03T00:08:00;97841.19;;;3.56
78917;BMP280;68315;48.608;11.436;2023-04-03T00:10:27;97845.56;;;3.54
78917;BMP280;68315;48.608;11.436;2023-04-03T00:12:52;97854.19;;;3.52
78917;BMP280;68315;48.608;11.436;2023-04-03T00:15:18;97849.50;;;3.53
78917;BMP280;68315;48.608;11.436;2023-04-03T00:17:43;97842.09;;;3.53
78917;BMP280;68315;48.608;11.436;2023-04-03T00:20:08;97845.56;;;3.54
78917;BMP280;68315;48.608;11.436;2023-04-03T00:22:34;97844.06;;;3.53
78917;BMP280;68315;48.608;11.436;2023-04-03T00:24:59;97849.22;;;3.51
78917;BMP280;68315;48.608;11.436;2023-04-03T00:27:25;97849.69;;;3.49
78917;BMP280;68315;48.608;11.436;2023-04-03T00:29:50;97842.75;;;3.48
78917;BMP280;68315;48.608;11.436;2023-04-03T00:32:15;97840.03;;;3.48
78917;BMP280;68315;48.608;11.436;2023-04-03T00:34:40;97832.63;;;3.49
78917;BMP280;68315;48.608;11.436;2023-04-03T00:37:06;97836.09;;;3.49
78917;BMP280;68315;48.608;11.436;2023-04-03T00:39:31;97834.13;;;3.50
78917;BMP280;68315;48.608;11.436;2023-04-03T00:41:56;97835.63;;;3.51
78917;BMP280;68315;48.608;11.436;2023-04-03T00:47:09;97848.66;;;3.47
78917;BMP280;68315;48.608;11.436;2023-04-03T00:49:37;97845.94;;;3.47
78917;BMP280;68315;48.608;11.436;2023-04-03T00:52:04;97842.94;;;3.45
78917;BMP280;68315;48.608;11.436;2023-04-03T00:54:32;97846.66;;;3.47
78917;BMP280;68315;48.608;11.436;2023-04-03T00:56:57;97842.66;;;3.43
78917;BMP280;68315;48.608;11.436;2023-04-03T00:59:30;97841.88;;;3.42
78917;BMP280;68315;48.608;11.436;2023-04-03T01:01:57;97841.13;;;3.42
78917;BMP280;68315;48.608;11.436;2023-04-03T01:06:56;97833.19;;;3.38
78917;BMP280;68315;48.608;11.436;2023-04-03T01:09:23;97825.03;;;3.38
78917;BMP280;68315;48.608;11.436;2023-04-03T01:11:48;97822.75;;;3.37
78917;BMP280;68315;48.608;11.436;2023-04-03T01:14:14;97834.66;;;3.39
78917;BMP280;68315;48.608;11.436;2023-04-03T01:16:40;97825.03;;;3.38
78917;BMP280;68315;48.608;11.436;2023-04-03T01:19:10;97835.41;;;3.40
78917;BMP280;68315;48.608;11.436;2023-04-03T01:24:37;97847.94;;;3.37
78917;BMP280;68315;48.608;11.436;2023-04-03T01:27:06;97852.91;;;3.39
78917;BMP280;68315;48.608;11.436;2023-04-03T01:29:32;97851.44;;;3.38
78917;BMP280;68315;48.608;11.436;2023-04-03T01:32:00;97846.16;;;3.34
78917;BMP280;68315;48.608;11.436;2023-04-03T01:34:27;97848.59;;;3.32
78917;BMP280;68315;48.608;11.436;2023-04-03T01:36:52;97850.53;;;3.32
78917;BMP280;68315;48.608;11.436;2023-04-03T01:39:18;97860.22;;;3.33
78917;BMP280;68315;48.608;11.436;2023-04-03T01:41:43;97853.72;;;3.30
78917;BMP280;68315;48.608;11.436;2023-04-03T01:44:09;97859.13;;;3.30
78917;BMP280;68315;48.608;11.436;2023-04-03T01:46:34;97866.56;;;3.30
78917;BMP280;68315;48.608;11.436;2023-04-03T01:49:00;97865.03;;;3.29
78917;BMP280;68315;48.608;11.436;2023-04-03T01:51:25;97866.56;;;3.30
78917;BMP280;68315;48.608;11.436;2023-04-03T01:53:51;97867.75;;;3.29
78917;BMP280;68315;48.608;11.436;2023-04-03T01:56:16;97858.84;;;3.28
78917;BMP280;68315;48.608;11.436;2023-04-03T01:58:41;97849.94;;;3.28
78917;BMP280;68315;48.608;11.436;2023-04-03T02:01:07;97862.03;;;3.27
78917;BMP280;68315;48.608;11.436;2023-04-03T02:03:32;97859.75;;;3.25
78917;BMP280;68315;48.608;11.436;2023-04-03T02:05:58;97853.56;;;3.25
78917;BMP280;68315;48.608;11.436;2023-04-03T02:08:23;97851.19;;;3.27
78917;BMP280;68315;48.608;11.436;2023-04-03T02:10:49;97856.28;;;3.25
78917;BMP280;68315;48.608;11.436;2023-04-03T02:13:15;97851.63;;;3.25
78917;BMP280;68315;48.608;11.436;2023-04-03T02:15:41;97856.28;;;3.25
78917;BMP280;68315;48.608;11.436;2023-04-03T02:18:06;97851.78;;;3.22
78917;BMP280;68315;48.608;11.436;2023-04-03T02:20:32;97861.00;;;3.24
78917;BMP280;68315;48.608;11.436;2023-04-03T02:22:58;97858.28;;;3.24
78917;BMP280;68315;48.608;11.436;2023-04-03T02:25:23;97856.00;;;3.23
78917;BMP280;68315;48.608;11.436;2023-04-03T02:27:48;97849.06;;;3.22
78917;BMP280;68315;48.608;11.436;2023-04-03T02:30:14;97859.94;;;3.22
78917;BMP280;68315;48.608;11.436;2023-04-03T02:32:40;97846.84;;;3.20
78917;BMP280;68315;48.608;11.436;2023-04-03T02:35:06;97852.28;;;3.20
78917;BMP280;68315;48.608;11.436;2023-04-03T02:37:32;97855.47;;;3.19
78917;BMP280;68315;48.608;11.436;2023-04-03T02:39:57;97852.00;;;3.18
78917;BMP280;68315;48.608;11.436;2023-04-03T02:42:22;97847.75;;;3.17
78917;BMP280;68315;48.608;11.436;2023-04-03T02:44:47;97854.50;;;3.22
78917;BMP280;68315;48.608;11.436;2023-04-03T02:47:13;97849.56;;;3.20
78917;BMP280;68315;48.608;11.436;2023-04-03T02:49:38;97852.44;;;3.17
78917;BMP280;68315;48.608;11.436;2023-04-03T02:52:03;97851.69;;;3.16
78917;BMP280;68315;48.608;11.436;2023-04-03T02:54:29;97854.88;;;3.15
78917;BMP280;68315;48.608;11.436;2023-04-03T02:56:56;97851.88;;;3.13
78917;BMP280;68315;48.608;11.436;2023-04-03T02:59:22;97849.91;;;3.13
78917;BMP280;68315;48.608;11.436;2023-04-03T03:01:47;97854.56;;;3.13
78917;BMP280;68315;48.608;11.436;2023-04-03T03:04:12;97858.50;;;3.12
78917;BMP280;68315;48.608;11.436;2023-04-03T03:06:38;97858.22;;;3.10
78917;BMP280;68315;48.608;11.436;2023-04-03T03:09:03;97846.59;;;3.09
78917;BMP280;68315;48.608;11.436;2023-04-03T03:11:29;97861.69;;;3.10
78917;BMP280;68315;48.608;11.436;2023-04-03T03:13:54;97859.41;;;3.09
78917;BMP280;68315;48.608;11.436;2023-04-03T03:16:20;97855.50;;;3.10
78917;BMP280;68315;48.608;11.436;2023-04-03T03:18:45;97855.19;;;3.08
78917;BMP280;68315;48.608;11.436;2023-04-03T03:21:11;97852.94;;;3.06
78917;BMP280;68315;48.608;11.436;2023-04-03T03:23:36;97857.44;;;3.09
78917;BMP280;68315;48.608;11.436;2023-04-03T03:26:06;97854.44;;;3.07
78917;BMP280;68315;48.608;11.436;2023-04-03T03:28:32;97854.91;;;3.05
78917;BMP280;68315;48.608;11.436;2023-04-03T03:30:58;97854.13;;;3.05
78917;BMP280;68315;48.608;11.436;2023-04-03T03:33:24;97851.41;;;3.05
78917;BMP280;68315;48.608;11.436;2023-04-03T03:35:51;97849.94;;;3.04
78917;BMP280;68315;48.608;11.436;2023-04-03T03:38:16;97851.88;;;3.03
78917;BMP280;68315;48.608;11.436;2023-04-03T03:40:41;97850.84;;;3.01
78917;BMP280;68315;48.608;11.436;2023-04-03T03:43:07;97848.56;;;2.99
78917;BMP280;68315;48.608;11.436;2023-04-03T03:45:32;97848.13;;;3.01
78917;BMP280;68315;48.608;11.436;2023-04-03T03:47:57;97846.16;;;3.01
78917;BMP280;68315;48.608;11.436;2023-04-03T03:50:23;97846.16;;;3.01
78917;BMP280;68315;48.608;11.436;2023-04-03T03:52:48;97855.22;;;2.98
78917;BMP280;68315;48.608;11.436;2023-04-03T03:55:13;97849.63;;;3.02
78917;BMP280;68315;48.608;11.436;2023-04-03T03:57:38;97852.03;;;3.00
78917;BMP280;68315;48.608;11.436;2023-04-03T04:00:04;97849.31;;;3.00
78917;BMP280;68315;48.608;11.436;2023-04-03T04:02:30;97847.84;;;2.99
78917;BMP280;68315;48.608;11.436;2023-04-03T04:04:55;97852.50;;;2.98
78917;BMP280;68315;48.608;11.436;2023-04-03T04:07:20;97853.28;;;2.99
78917;BMP280;68315;48.608;11.436;2023-04-03T04:09:46;97850.56;;;2.99
78917;BMP280;68315;48.608;11.436;2023-04-03T04:12:11;97859.44;;;2.99
78917;BMP280;68315;48.608;11.436;2023-04-03T04:14:36;97856.44;;;2.97
78917;BMP280;68315;48.608;11.436;2023-04-03T04:17:02;97854.19;;;2.96
78917;BMP280;68315;48.608;11.436;2023-04-03T04:19:27;97864.28;;;2.95
78917;BMP280;68315;48.608;11.436;2023-04-03T04:21:53;97856.44;;;2.97
78917;BMP280;68315;48.608;11.436;2023-04-03T04:24:18;97861.09;;;2.97
78917;BMP280;68315;48.608;11.436;2023-04-03T04:26:44;97855.66;;;2.97
78917;BMP280;68315;48.608;11.436;2023-04-03T04:29:09;97869.72;;;2.95
78917;BMP280;68315;48.608;11.436;2023-04-03T04:31:35;97860.81;;;2.95
78917;BMP280;68315;48.608;11.436;2023-04-03T04:34:00;97860.06;;;2.94
78917;BMP280;68315;48.608;11.436;2023-04-03T04:36:26;97861.56;;;2.95
78917;BMP280;68315;48.608;11.436;2023-04-03T04:38:51;97862.63;;;2.98
78917;BMP280;68315;48.608;11.436;2023-04-03T04:41:21;97861.56;;;2.95
78917;BMP280;68315;48.608;11.436;2023-04-03T04:43:52;97861.25;;;2.93
78917;BMP280;68315;48.608;11.436;2023-04-03T04:46:17;97860.53;;;2.93
78917;BMP280;68315;48.608;11.436;2023-04-03T04:48:43;97871.84;;;2.91
78917;BMP280;68315;48.608;11.436;2023-04-03T04:51:08;97875.47;;;2.88
78917;BMP280;68315;48.608;11.436;2023-04-03T04:53:34;97870.03;;;2.88
78917;BMP280;68315;48.608;11.436;2023-04-03T04:55:59;97871.09;;;2.91
78917;BMP280;68315;48.608;11.436;2023-04-03T04:58:25;97875.31;;;2.92
78917;BMP280;68315;48.608;11.436;2023-04-03T05:00:58;97881.47;;;2.92
78917;BMP280;68315;48.608;11.436;2023-04-03T05:03:24;97878.50;;;2.90
78917;BMP280;68315;48.608;11.436;2023-04-03T05:05:49;97878.94;;;2.89
78917;BMP280;68315;48.608;11.436;2023-04-03T05:08:14;97875.78;;;2.90
78917;BMP280;68315;48.608;11.436;2023-04-03T05:10:39;97879.69;;;2.89
78917;BMP280;68315;48.608;11.436;2023-04-03T05:13:06;97882.41;;;2.89
78917;BMP280;68315;48.608;11.436;2023-04-03T05:15:31;97878.50;;;2.90
78917;BMP280;68315;48.608;11.436;2023-04-03T05:17:56;97880.00;;;2.91
78917;BMP280;68315;48.608;11.436;2023-04-03T05:20:22;97884.94;;;2.93
78917;BMP280;68315;48.608;11.436;2023-04-03T05:22:47;97890.84;;;2.91
78917;BMP280;68315;48.608;11.436;2023-04-03T05:25:12;97883.94;;;2.90
78917;BMP280;68315;48.608;11.436;2023-04-03T05:27:37;97884.19;;;3.01
78917;BMP280;68315;48.608;11.436;2023-04-03T05:30:03;97882.38;;;2.98
78917;BMP280;68315;48.608;11.436;2023-04-03T05:32:29;97882.66;;;3.00
78917;BMP280;68315;48.608;11.436;2023-04-03T05:34:54;97873.47;;;2.98
78917;BMP280;68315;48.608;11.436;2023-04-03T05:37:20;97880.84;;;2.97
78917;BMP280;68315;48.608;11.436;2023-04-03T05:39:45;97878.13;;;2.97
78917;BMP280;68315;48.608;11.436;2023-04-03T05:42:10;97881.31;;;2.96
78917;BMP280;68315;48.608;11.436;2023-04-03T05:44:37;97886.75;;;2.96
78917;BMP280;68315;48.608;11.436;2023-04-03T05:47:03;97892.75;;;3.00
78917;BMP280;68315;48.608;11.436;2023-04-03T05:49:28;97888.09;;;3.00
78917;BMP280;68315;48.608;11.436;2023-04-03T05:51:53;97890.03;;;3.00
78917;BMP280;68315;48.608;11.436;2023-04-03T05:54:21;97891.84;;;3.03
78917;BMP280;68315;48.608;11.436;2023-04-03T05:56:49;97884.59;;;3.09
78917;BMP280;68315;48.608;11.436;2023-04-03T05:59:14;97891.06;;;3.12
78917;BMP280;68315;48.608;11.436;2023-04-03T06:01:39;97897.09;;;3.16
78917;BMP280;68315;48.608;11.436;2023-04-03T06:04:04;97892.41;;;3.16
78917;BMP280;68315;48.608;11.436;2023-04-03T06:06:48;97895.88;;;3.17
78917;BMP280;68315;48.608;11.436;2023-04-03T06:09:15;97896.47;;;3.21
78917;BMP280;68315;48.608;11.436;2023-04-03T06:11:41;97898.53;;;3.26
78917;BMP280;68315;48.608;11.436;2023-04-03T06:14:07;97901.53;;;3.28
78917;BMP280;68315;48.608;11.436;2023-04-03T06:16:33;97900.19;;;3.32
78917;BMP280;68315;48.608;11.436;2023-04-03T06:18:58;97903.78;;;3.38
78917;BMP280;68315;48.608;11.436;2023-04-03T06:21:23;97893.06;;;3.44
78917;BMP280;68315;48.608;11.436;2023-04-03T06:23:49;97901.50;;;3.46
78917;BMP280;68315;48.608;11.436;2023-04-03T06:26:14;97909.91;;;3.48
78917;BMP280;68315;48.608;11.436;2023-04-03T06:28:39;97902.34;;;3.52
78917;BMP280;68315;48.608;11.436;2023-04-03T06:31:05;97898.72;;;3.55
78917;BMP280;68315;48.608;11.436;2023-04-03T06:33:30;97905.63;;;3.56
78917;BMP280;68315;48.608;11.436;2023-04-03T06:35:57;97908.19;;;3.59
78917;BMP280;68315;48.608;11.436;2023-04-03T06:38:23;97907.56;;;3.64
78917;BMP280;68315;48.608;11.436;2023-04-03T06:40:48;97922.19;;;3.67
78917;BMP280;68315;48.608;11.436;2023-04-03T06:43:13;97914.34;;;3.69
78917;BMP280;68315;48.608;11.436;2023-04-03T06:45:39;97909.44;;;3.73
78917;BMP280;68315;48.608;11.436;2023-04-03T06:48:04;97923.63;;;3.77
78917;BMP280;68315;48.608;11.436;2023-04-03T06:50:30;97920.75;;;3.81
78917;BMP280;68315;48.608;11.436;2023-04-03T06:52:56;97921.97;;;3.80
78917;BMP280;68315;48.608;11.436;2023-04-03T06:55:21;97925.56;;;3.86
78917;BMP280;68315;48.608;11.436;2023-04-03T06:57:46;97922.97;;;3.91
78917;BMP280;68315;48.608;11.436;2023-04-03T07:00:12;97928.19;;;3.95
78917;BMP280;68315;48.608;11.436;2023-04-03T07:02:38;97927.25;;;3.98
78917;BMP280;68315;48.608;11.436;2023-04-03T07:05:03;97926.44;;;4.06
78917;BMP280;68315;48.608;11.436;2023-04-03T07:07:28;97932.94;;;4.09
78917;BMP280;68315;48.608;11.436;2023-04-03T07:09:54;97947.38;;;4.15
78917;BMP280;68315;48.608;11.436;2023-04-03T07:12:19;97941.47;;;4.16
78917;BMP280;68315;48.608;11.436;2023-04-03T07:14:45;97941.75;;;4.18
78917;BMP280;68315;48.608;11.436;2023-04-03T07:17:10;97939.63;;;4.22
78917;BMP280;68315;48.608;11.436;2023-04-03T07:19:36;97936.84;;;4.31
78917;BMP280;68315;48.608;11.436;2023-04-03T07:22:01;97945.31;;;4.33
78917;BMP280;68315;48.608;11.436;2023-04-03T07:24:26;97939.94;;;4.39
78917;BMP280;68315;48.608;11.436;2023-04-03T07:26:52;97943.59;;;4.36
78917;BMP280;68315;48.608;11.436;2023-04-03T07:29:18;97947.50;;;4.35
78917;BMP280;68315;48.608;11.436;2023-04-03T07:31:43;97956.53;;;4.41
78917;BMP280;68315;48.608;11.436;2023-04-03T07:34:09;97954.22;;;4.49
78917;BMP280;68315;48.608;11.436;2023-04-03T07:36:35;97949.59;;;4.55
78917;BMP280;68315;48.608;11.436;2023-04-03T07:39:01;97958.63;;;4.61
78917;BMP280;68315;48.608;11.436;2023-04-03T07:41:26;97963.44;;;4.66
78917;BMP280;68315;48.608;11.436;2023-04-03T07:43:51;97963.50;;;4.71
78917;BMP280;68315;48.608;11.436;2023-04-03T07:46:18;97959.84;;;4.74
78917;BMP280;68315;48.608;11.436;2023-04-03T07:48:43;97963.06;;;4.73
78917;BMP280;68315;48.608;11.436;2023-04-03T07:51:09;97961.84;;;4.74
78917;BMP280;68315;48.608;11.436;2023-04-03T07:53:35;97961.47;;;4.81
78917;BMP280;68315;48.608;11.436;2023-04-03T07:56:00;97965.72;;;4.82
78917;BMP280;68315;48.608;11.436;2023-04-03T07:58:27;97974.06;;;4.93
78917;BMP280;68315;48.608;11.436;2023-04-03T08:00:52;97974.91;;;4.99
78917;BMP280;68315;48.608;11.436;2023-04-03T08:03:18;97969.06;;;5.06
78917;BMP280;68315;48.608;11.436;2023-04-03T08:05:45;97976.13;;;5.13
78917;BMP280;68315;48.608;11.436;2023-04-03T08:08:12;97971.03;;;5.20
78917;BMP280;68315;48.608;11.436;2023-04-03T08:10:38;97970.84;;;5.24
78917;BMP280;68315;48.608;11.436;2023-04-03T08:13:06;97972.72;;;5.32
78917;BMP280;68315;48.608;11.436;2023-04-03T08:15:32;97978.25;;;5.38
78917;BMP280;68315;48.608;11.436;2023-04-03T08:17:58;97972.88;;;5.43
78917;BMP280;68315;48.608;11.436;2023-04-03T08:20:24;97980.25;;;5.57
78917;BMP280;68315;48.608;11.436;2023-04-03T08:22:50;97974.72;;;5.66
78917;BMP280;68315;48.608;11.436;2023-04-03T08:25:16;97980.00;;;5.76
78917;BMP280;68315;48.608;11.436;2023-04-03T08:27:42;97973.47;;;5.88
78917;BMP280;68315;48.608;11.436;2023-04-03T08:30:08;97978.84;;;5.97
78917;BMP280;68315;48.608;11.436;2023-04-03T08:32:34;97981.59;;;6.02
78917;BMP280;68315;48.608;11.436;2023-04-03T08:35:00;97980.78;;;6.16
78917;BMP280;68315;48.608;11.436;2023-04-03T08:37:25;97978.06;;;6.16
78917;BMP280;68315;48.608;11.436;2023-04-03T08:39:51;97980.41;;;6.29
78917;BMP280;68315;48.608;11.436;2023-04-03T08:42:37;97984.66;;;6.30
78917;BMP280;68315;48.608;11.436;2023-04-03T08:45:13;97971.34;;;6.37
78917;BMP280;68315;48.608;11.436;2023-04-03T08:47:55;97981.28;;;6.40
78917;BMP280;68315;48.608;11.436;2023-04-03T08:50:26;97985.81;;;6.44
78917;BMP280;68315;48.608;11.436;2023-04-03T08:52:56;97987.97;;;6.60
78917;BMP280;68315;48.608;11.436;2023-04-03T08:55:23;97989.09;;;6.73
78917;BMP280;68315;48.608;11.436;2023-04-03T08:57:57;97988.63;;;6.75
78917;BMP280;68315;48.608;11.436;2023-04-03T09:00:27;97994.75;;;6.70
78917;BMP280;68315;48.608;11.436;2023-04-03T09:02:55;97976.50;;;6.56
78917;BMP280;68315;48.608;11.436;2023-04-03T09:05:47;97985.03;;;6.63
78917;BMP280;68315;48.608;11.436;2023-04-03T09:08:21;97991.44;;;6.60
78917;BMP280;68315;48.608;11.436;2023-04-03T09:10:48;97986.72;;;6.61
78917;BMP280;68315;48.608;11.436;2023-04-03T09:13:29;97989.84;;;6.48
78917;BMP280;68315;48.608;11.436;2023-04-03T09:15:56;97995.00;;;6.46
78917;BMP280;68315;48.608;11.436;2023-04-03T09:18:38;97996.44;;;6.62
78917;BMP280;68315;48.608;11.436;2023-04-03T09:21:24;98009.53;;;6.83
78917;BMP280;68315;48.608;11.436;2023-04-03T09:23:55;97997.84;;;7.08
78917;BMP280;68315;48.608;11.436;2023-04-03T09:28:48;97993.28;;;7.31
78917;BMP280;68315;48.608;11.436;2023-04-03T09:33:45;97993.84;;;7.35
78917;BMP280;68315;48.608;11.436;2023-04-03T09:36:11;98003.28;;;7.40
78917;BMP280;68315;48.608;11.436;2023-04-03T09:38:36;97991.94;;;7.47
78917;BMP280;68315;48.608;11.436;2023-04-03T09:41:16;97987.63;;;7.35
78917;BMP280;68315;48.608;11.436;2023-04-03T09:43:53;97996.84;;;7.37
78917;BMP280;68315;48.608;11.436;2023-04-03T09:46:28;97996.16;;;7.48
78917;BMP280;68315;48.608;11.436;2023-04-03T09:48:59;97992.44;;;7.51
78917;BMP280;68315;48.608;11.436;2023-04-03T09:51:29;97983.50;;;7.56
78917;BMP280;68315;48.608;11.436;2023-04-03T09:53:55;97984.56;;;7.58
78917;BMP280;68315;48.608;11.436;2023-04-03T09:56:29;97992.63;;;7.42
78917;BMP280;68315;48.608;11.436;2023-04-03T10:01:29;97995.19;;;7.20
78917;BMP280;68315;48.608;11.436;2023-04-03T10:04:15;97986.13;;;7.02
78917;BMP280;68315;48.608;11.436;2023-04-03T10:06:44;97987.44;;;6.81
78917;BMP280;68315;48.608;11.436;2023-04-03T10:09:23;97992.94;;;6.61
78917;BMP280;68315;48.608;11.436;2023-04-03T10:12:09;97991.16;;;6.32
78917;BMP280;68315;48.608;11.436;2023-04-03T10:14:40;97988.56;;;6.23
78917;BMP280;68315;48.608;11.436;2023-04-03T10:17:13;97995.19;;;6.17
78917;BMP280;68315;48.608;11.436;2023-04-03T10:19:46;97989.72;;;6.17
78917;BMP280;68315;48.608;11.436;2023-04-03T10:25:21;97984.41;;;6.08
78917;BMP280;68315;48.608;11.436;2023-04-03T10:27:57;97984.28;;;6.17
78917;BMP280;68315;48.608;11.436;2023-04-03T10:33:12;97980.22;;;6.32
78917;BMP280;68315;48.608;11.436;2023-04-03T10:36:33;97991.63;;;6.51
78917;BMP280;68315;48.608;11.436;2023-04-03T10:39:18;97970.94;;;6.70
78917;BMP280;68315;48.608;11.436;2023-04-03T10:44:49;97983.56;;;6.68
78917;BMP280;68315;48.608;11.436;2023-04-03T10:47:21;97982.41;;;6.74
78917;BMP280;68315;48.608;11.436;2023-04-03T10:52:54;97976.66;;;6.98
78917;BMP280;68315;48.608;11.436;2023-04-03T10:57:46;97975.53;;;7.16
78917;BMP280;68315;48.608;11.436;2023-04-03T11:00:21;97971.47;;;7.37
78917;BMP280;68315;48.608;11.436;2023-04-03T11:02:57;97967.59;;;7.54
78917;BMP280;68315;48.608;11.436;2023-04-03T11:05:31;97960.78;;;7.81
78917;BMP280;68315;48.608;11.436;2023-04-03T11:08:01;97960.69;;;8.29
78917;BMP280;68315;48.608;11.436;2023-04-03T11:10:44;97964.50;;;8.70
78917;BMP280;68315;48.608;11.436;2023-04-03T11:13:21;97958.00;;;9.17
78917;BMP280;68315;48.608;11.436;2023-04-03T11:15:48;97953.97;;;9.46
78917;BMP280;68315;48.608;11.436;2023-04-03T11:18:22;97942.22;;;9.57
78917;BMP280;68315;48.608;11.436;2023-04-03T11:21:04;97930.75;;;9.58
78917;BMP280;68315;48.608;11.436;2023-04-03T11:23:35;97934.03;;;9.40
78917;BMP280;68315;48.608;11.436;2023-04-03T11:28:43;97940.81;;;9.06
78917;BMP280;68315;48.608;11.436;2023-04-03T11:34:15;97937.34;;;8.78
78917;BMP280;68315;48.608;11.436;2023-04-03T11:36:48;97931.88;;;8.55
78917;BMP280;68315;48.608;11.436;2023-04-03T11:39:34;97929.31;;;8.30
78917;BMP280;68315;48.608;11.436;2023-04-03T11:42:17;97927.50;;;7.99
78917;BMP280;68315;48.608;11.436;2023-04-03T11:44:46;97939.19;;;7.89
78917;BMP280;68315;48.608;11.436;2023-04-03T11:47:48;97934.41;;;7.72
78917;BMP280;68315;48.608;11.436;2023-04-03T12:16:21;97919.13;;;8.25
78917;BMP280;68315;48.608;11.436;2023-04-03T12:21:23;97920.66;;;8.42
78917;BMP280;68315;48.608;11.436;2023-04-03T12:24:05;97920.59;;;9.14
78917;BMP280;68315;48.608;11.436;2023-04-03T12:38:02;97909.19;;;8.99
78917;BMP280;68315;48.608;11.436;2023-04-03T12:45:59;97896.00;;;8.65
78917;BMP280;68315;48.608;11.436;2023-04-03T12:48:30;97890.34;;;9.48
78917;BMP280;68315;48.608;11.436;2023-04-03T12:50:57;97889.16;;;10.30
78917;BMP280;68315;48.608;11.436;2023-04-03T12:53:26;97885.66;;;10.30
78917;BMP280;68315;48.608;11.436;2023-04-03T12:55:56;97877.63;;;9.96
78917;BMP280;68315;48.608;11.436;2023-04-03T12:58:27;97890.63;;;9.44
78917;BMP280;68315;48.608;11.436;2023-04-03T13:01:04;97877.28;;;9.02
78917;BMP280;68315;48.608;11.436;2023-04-03T13:03:38;97893.22;;;8.87
78917;BMP280;68315;48.608;11.436;2023-04-03T13:06:04;97897.13;;;9.41
78917;BMP280;68315;48.608;11.436;2023-04-03T13:08:29;97901.88;;;10.33
78917;BMP280;68315;48.608;11.436;2023-04-03T13:11:05;97899.59;;;11.39
78917;BMP280;68315;48.608;11.436;2023-04-03T13:13:34;97890.78;;;12.02
78917;BMP280;68315;48.608;11.436;2023-04-03T13:15:59;97891.88;;;11.75
78917;BMP280;68315;48.608;11.436;2023-04-03T13:18:31;97898.66;;;11.13
78917;BMP280;68315;48.608;11.436;2023-04-03T13:21:18;97900.94;;;10.55
78917;BMP280;68315;48.608;11.436;2023-04-03T13:23:48;97897.50;;;10.13
78917;BMP280;68315;48.608;11.436;2023-04-03T13:26:17;97897.50;;;9.67
78917;BMP280;68315;48.608;11.436;2023-04-03T13:28:45;97887.16;;;9.32
78917;BMP280;68315;48.608;11.436;2023-04-03T13:34:04;97891.59;;;10.93
78917;BMP280;68315;48.608;11.436;2023-04-03T13:36:33;97887.31;;;10.98
78917;BMP280;68315;48.608;11.436;2023-04-03T13:41:42;97892.09;;;10.67
78917;BMP280;68315;48.608;11.436;2023-04-03T13:46:40;97886.31;;;12.12
78917;BMP280;68315;48.608;11.436;2023-04-03T13:49:18;97884.06;;;13.13
78917;BMP280;68315;48.608;11.436;2023-04-03T13:51:44;97877.19;;;13.67
78917;BMP280;68315;48.608;11.436;2023-04-03T13:54:19;97881.94;;;13.79
78917;BMP280;68315;48.608;11.436;2023-04-03T13:56:45;97876.25;;;12.78
78917;BMP280;68315;48.608;11.436;2023-04-03T14:04:16;97873.44;;;12.20
78917;BMP280;68315;48.608;11.436;2023-04-03T14:06:42;97872.81;;;12.59
78917;BMP280;68315;48.608;11.436;2023-04-03T14:09:08;97867.41;;;12.80
78917;BMP280;68315;48.608;11.436;2023-04-03T14:11:42;97873.25;;;13.02
78917;BMP280;68315;48.608;11.436;2023-04-03T14:14:23;97862.00;;;13.26
78917;BMP280;68315;48.608;11.436;2023-04-03T14:16:59;97859.00;;;13.24
78917;BMP280;68315;48.608;11.436;2023-04-03T14:19:33;97862.19;;;12.50
78917;BMP280;68315;48.608;11.436;2023-04-03T14:21:59;97863.69;;;11.88
78917;BMP280;68315;48.608;11.436;2023-04-03T14:24:25;97872.44;;;11.67
78917;BMP280;68315;48.608;11.436;2023-04-03T14:26:53;97860.03;;;11.80
78917;BMP280;68315;48.608;11.436;2023-04-03T14:29:22;97853.94;;;11.49
78917;BMP280;68315;48.608;11.436;2023-04-03T14:31:48;97856.97;;;11.64
78917;BMP280;68315;48.608;11.436;2023-04-03T14:34:15;97852.97;;;12.16
78917;BMP280;68315;48.608;11.436;2023-04-03T14:36:42;97857.44;;;12.63
78917;BMP280;68315;48.608;11.436;2023-04-03T14:39:11;97864.75;;;13.00
78917;BMP280;68315;48.608;11.436;2023-04-03T14:41:44;97850.84;;;13.19
78917;BMP280;68315;48.608;11.436;2023-04-03T14:44:10;97853.53;;;12.27
78917;BMP280;68315;48.608;11.436;2023-04-03T14:46:36;97845.31;;;11.21
78917;BMP280;68315;48.608;11.436;2023-04-03T14:49:05;97860.22;;;10.53
78917;BMP280;68315;48.608;11.436;2023-04-03T14:51:34;97858.53;;;10.15
78917;BMP280;68315;48.608;11.436;2023-04-03T14:54:00;97856.00;;;9.82
78917;BMP280;68315;48.608;11.436;2023-04-03T14:56:28;97866.13;;;9.98
78917;BMP280;68315;48.608;11.436;2023-04-03T14:58:57;97858.34;;;10.43
78917;BMP280;68315;48.608;11.436;2023-04-03T15:01:23;97852.59;;;10.94
78917;BMP280;68315;48.608;11.436;2023-04-03T15:03:49;97861.97;;;11.47
78917;BMP280;68315;48.608;11.436;2023-04-03T15:06:15;97861.03;;;11.63
78917;BMP280;68315;48.608;11.436;2023-04-03T15:08:42;97855.81;;;11.17
78917;BMP280;68315;48.608;11.436;2023-04-03T15:11:10;97862.34;;;10.42
78917;BMP280;68315;48.608;11.436;2023-04-03T15:13:36;97860.91;;;10.35
78917;BMP280;68315;48.608;11.436;2023-04-03T15:16:02;97853.91;;;10.64
78917;BMP280;68315;48.608;11.436;2023-04-03T15:18:32;97856.16;;;10.89
78917;BMP280;68315;48.608;11.436;2023-04-03T15:21:00;97849.06;;;10.94
78917;BMP280;68315;48.608;11.436;2023-04-03T15:23:25;97855.00;;;10.79
78917;BMP280;68315;48.608;11.436;2023-04-03T15:25:52;97861.41;;;10.87
78917;BMP280;68315;48.608;11.436;2023-04-03T15:28:41;97867.94;;;10.60
78917;BMP280;68315;48.608;11.436;2023-04-03T15:31:08;97863.78;;;10.48
78917;BMP280;68315;48.608;11.436;2023-04-03T15:33:34;97865.31;;;10.44
78917;BMP280;68315;48.608;11.436;2023-04-03T15:36:00;97858.59;;;10.09
78917;BMP280;68315;48.608;11.436;2023-04-03T15:38:25;97862.41;;;9.55
78917;BMP280;68315;48.608;11.436;2023-04-03T15:40:50;97865.03;;;9.08
78917;BMP280;68315;48.608;11.436;2023-04-03T15:43:16;97864.31;;;8.97
78917;BMP280;68315;48.608;11.436;2023-04-03T15:45:42;97867.03;;;9.19